sensor_id;sensor_type;location;lat;lon;timestamp;pressure;altitude;pressure_sealevel;temperature;humidity
61384;BME280;63511;49.346;8.798;2023-04-04T00:00:13;101232.97;;;4.49;50.90
61384;BME280;63511;49.346;8.798;2023-04-04T00:02:42;101228.91;;;4.74;50.28
61384;BME280;63511;49.346;8.798;2023-04-04T00:05:08;101232.75;;;4.79;49.46
61384;BME280;63511;49.346;8.798;2023-04-04T00:07:35;101225.34;;;4.56;51.45
61384;BME280;63511;49.346;8.798;2023-04-04T00:10:02;101226.09;;;4.24;51.93
61384;BME280;63511;49.346;8.798;2023-04-04T00:12:29;101224.75;;;4.50;53.38
61384;BME280;63511;49.346;8.798;2023-04-04T00:14:55;101226.25;;;4.57;52.94
61384;BME280;63511;49.346;8.798;2023-04-04T00:17:22;101223.13;;;4.35;51.36
61384;BME280;63511;49.346;8.798;2023-04-04T00:19:48;101213.28;;;4.37;51.96
61384;BME280;63511;49.346;8.798;2023-04-04T00:22:15;101214.78;;;4.75;52.56
61384;BME280;63511;49.346;8.798;2023-04-04T00:24:42;101215.94;;;4.54;52.60
61384;BME280;63511;49.346;8.798;2023-04-04T00:27:09;101213.13;;;4.35;53.71
61384;BME280;63511;49.346;8.798;2023-04-04T00:29:36;101223.91;;;4.11;53.89
61384;BME280;63511;49.346;8.798;2023-04-04T00:32:02;101214.16;;;4.21;54.14
61384;BME280;63511;49.346;8.798;2023-04-04T00:34:28;101214.09;;;4.28;53.98
61384;BME280;63511;49.346;8.798;2023-04-04T00:36:55;101210.34;;;4.09;53.53
61384;BME280;63511;49.346;8.798;2023-04-04T00:39:21;101207.97;;;4.18;54.38
61384;BME280;63511;49.346;8.798;2023-04-04T00:41:50;101207.25;;;4.19;54.71
61384;BME280;63511;49.346;8.798;2023-04-04T00:44:18;101197.34;;;3.89;57.00
61384;BME280;63511;49.346;8.798;2023-04-04T00:46:44;101208.94;;;3.73;56.36
61384;BME280;63511;49.346;8.798;2023-04-04T00:49:10;101202.50;;;3.75;56.96
61384;BME280;63511;49.346;8.798;2023-04-04T00:51:37;101209.88;;;3.66;57.06
61384;BME280;63511;49.346;8.798;2023-04-04T00:54:03;101201.47;;;3.73;56.56
61384;BME280;63511;49.346;8.798;2023-04-04T00:56:30;101205.84;;;3.60;56.60
61384;BME280;63511;49.346;8.798;2023-04-04T00:59:00;101203.03;;;3.57;57.73
61384;BME280;63511;49.346;8.798;2023-04-04T01:01:28;101202.13;;;3.33;59.96
61384;BME280;63511;49.346;8.798;2023-04-04T01:03:57;101199.72;;;3.42;58.86
61384;BME280;63511;49.346;8.798;2023-04-04T01:06:24;101202.00;;;3.25;60.01
61384;BME280;63511;49.346;8.798;2023-04-04T01:08:51;101204.91;;;3.21;60.35
61384;BME280;63511;49.346;8.798;2023-04-04T01:11:19;101197.91;;;2.95;61.74
61384;BME280;63511;49.346;8.798;2023-04-04T01:13:45;101193.00;;;2.88;61.35
61384;BME280;63511;49.346;8.798;2023-04-04T01:16:12;101203.25;;;3.21;59.73
61384;BME280;63511;49.346;8.798;2023-04-04T01:18:40;101198.44;;;3.23;60.23
61384;BME280;63511;49.346;8.798;2023-04-04T01:21:08;101200.47;;;3.11;61.16
61384;BME280;63511;49.346;8.798;2023-04-04T01:23:40;101204.38;;;2.86;62.74
61384;BME280;63511;49.346;8.798;2023-04-04T01:26:10;101209.53;;;2.95;62.45
61384;BME280;63511;49.346;8.798;2023-04-04T01:28:36;101202.03;;;2.95;61.78
61384;BME280;63511;49.346;8.798;2023-04-04T01:31:02;101199.78;;;2.82;61.83
61384;BME280;63511;49.346;8.798;2023-04-04T01:33:33;101201.16;;;2.94;61.21
61384;BME280;63511;49.346;8.798;2023-04-04T01:36:03;101198.28;;;2.98;61.10
61384;BME280;63511;49.346;8.798;2023-04-04T01:38:33;101192.38;;;2.98;60.96
61384;BME280;63511;49.346;8.798;2023-04-04T01:41:02;101198.19;;;2.83;62.27
61384;BME280;63511;49.346;8.798;2023-04-04T01:43:31;101187.00;;;3.02;62.42
61384;BME280;63511;49.346;8.798;2023-04-04T01:45:57;101184.31;;;3.08;60.67
61384;BME280;63511;49.346;8.798;2023-04-04T01:48:24;101184.66;;;3.11;61.08
61384;BME280;63511;49.346;8.798;2023-04-04T01:50:50;101184.81;;;2.82;61.81
61384;BME280;63511;49.346;8.798;2023-04-04T01:53:17;101184.09;;;2.83;63.00
61384;BME280;63511;49.346;8.798;2023-04-04T01:55:43;101184.69;;;2.74;63.51
61384;BME280;63511;49.346;8.798;2023-04-04T01:58:09;101185.84;;;2.54;65.02
61384;BME280;63511;49.346;8.798;2023-04-04T02:00:37;101182.34;;;2.45;65.08
61384;BME280;63511;49.346;8.798;2023-04-04T02:03:04;101188.59;;;2.35;64.42
61384;BME280;63511;49.346;8.798;2023-04-04T02:05:30;101181.22;;;2.58;63.47
61384;BME280;63511;49.346;8.798;2023-04-04T02:07:57;101191.84;;;2.27;64.68
61384;BME280;63511;49.346;8.798;2023-04-04T02:10:23;101178.38;;;2.54;64.18
61384;BME280;63511;49.346;8.798;2023-04-04T02:12:51;101184.63;;;2.44;64.58
61384;BME280;63511;49.346;8.798;2023-04-04T02:15:17;101187.13;;;2.44;64.43
61384;BME280;63511;49.346;8.798;2023-04-04T02:17:47;101191.59;;;2.39;64.06
61384;BME280;63511;49.346;8.798;2023-04-04T02:20:13;101187.44;;;2.17;64.71
61384;BME280;63511;49.346;8.798;2023-04-04T02:22:39;101184.56;;;2.14;65.57
61384;BME280;63511;49.346;8.798;2023-04-04T02:25:06;101185.97;;;2.26;64.92
61384;BME280;63511;49.346;8.798;2023-04-04T02:27:32;101177.91;;;2.43;64.78
61384;BME280;63511;49.346;8.798;2023-04-04T02:29:59;101177.63;;;2.63;62.92
61384;BME280;63511;49.346;8.798;2023-04-04T02:32:25;101176.72;;;2.69;62.50
61384;BME280;63511;49.346;8.798;2023-04-04T02:34:53;101181.50;;;2.38;63.90
61384;BME280;63511;49.346;8.798;2023-04-04T02:37:20;101180.47;;;2.22;65.08
61384;BME280;63511;49.346;8.798;2023-04-04T02:39:46;101175.31;;;2.20;66.44
61384;BME280;63511;49.346;8.798;2023-04-04T02:42:12;101182.56;;;2.33;64.94
61384;BME280;63511;49.346;8.798;2023-04-04T02:44:39;101182.69;;;2.48;63.98
61384;BME280;63511;49.346;8.798;2023-04-04T02:47:05;101175.03;;;2.47;63.53
61384;BME280;63511;49.346;8.798;2023-04-04T02:49:32;101184.38;;;2.20;65.54
61384;BME280;63511;49.346;8.798;2023-04-04T02:51:59;101175.50;;;2.22;64.66
61384;BME280;63511;49.346;8.798;2023-04-04T02:54:26;101170.00;;;2.17;65.44
61384;BME280;63511;49.346;8.798;2023-04-04T02:56:52;101173.63;;;1.91;66.52
61384;BME280;63511;49.346;8.798;2023-04-04T02:59:18;101180.00;;;1.96;66.67
61384;BME280;63511;49.346;8.798;2023-04-04T03:01:45;101181.75;;;2.04;65.78
61384;BME280;63511;49.346;8.798;2023-04-04T03:04:11;101176.44;;;2.01;64.99
61384;BME280;63511;49.346;8.798;2023-04-04T03:06:38;101178.56;;;2.12;65.30
61384;BME280;63511;49.346;8.798;2023-04-04T03:09:06;101177.81;;;2.20;65.44
61384;BME280;63511;49.346;8.798;2023-04-04T03:11:32;101174.47;;;2.05;65.18
61384;BME280;63511;49.346;8.798;2023-04-04T03:13:58;101175.16;;;2.11;65.06
61384;BME280;63511;49.346;8.798;2023-04-04T03:16:25;101174.66;;;2.07;66.35
61384;BME280;63511;49.346;8.798;2023-04-04T03:18:51;101175.69;;;2.09;65.27
61384;BME280;63511;49.346;8.798;2023-04-04T03:21:17;101177.16;;;2.00;66.38
61384;BME280;63511;49.346;8.798;2023-04-04T03:23:44;101180.28;;;2.20;65.42
61384;BME280;63511;49.346;8.798;2023-04-04T03:26:12;101180.91;;;1.96;65.87
61384;BME280;63511;49.346;8.798;2023-04-04T03:28:39;101176.44;;;2.01;65.47
61384;BME280;63511;49.346;8.798;2023-04-04T03:31:05;101182.47;;;2.03;65.57
61384;BME280;63511;49.346;8.798;2023-04-04T03:33:34;101179.50;;;1.77;67.21
61384;BME280;63511;49.346;8.798;2023-04-04T03:36:01;101170.75;;;1.95;66.57
61384;BME280;63511;49.346;8.798;2023-04-04T03:38:27;101177.16;;;2.00;65.96
61384;BME280;63511;49.346;8.798;2023-04-04T03:40:59;101175.59;;;1.86;66.54
61384;BME280;63511;49.346;8.798;2023-04-04T03:43:27;101179.34;;;1.61;69.01
61384;BME280;63511;49.346;8.798;2023-04-04T03:45:53;101173.13;;;1.51;69.25
61384;BME280;63511;49.346;8.798;2023-04-04T03:48:20;101170.78;;;1.66;68.11
61384;BME280;63511;49.346;8.798;2023-04-04T03:50:46;101179.88;;;1.59;68.03
61384;BME280;63511;49.346;8.798;2023-04-04T03:53:13;101178.66;;;1.34;68.23
61384;BME280;63511;49.346;8.798;2023-04-04T03:55:40;101177.56;;;1.46;68.54
61384;BME280;63511;49.346;8.798;2023-04-04T03:58:07;101180.75;;;1.74;67.37
61384;BME280;63511;49.346;8.798;2023-04-04T04:00:34;101174.53;;;1.77;66.49
61384;BME280;63511;49.346;8.798;2023-04-04T04:03:01;101175.97;;;1.47;68.07
61384;BME280;63511;49.346;8.798;2023-04-04T04:05:27;101171.19;;;1.13;68.57
61384;BME280;63511;49.346;8.798;2023-04-04T04:07:53;101183.63;;;1.41;67.56
61384;BME280;63511;49.346;8.798;2023-04-04T04:10:20;101177.03;;;1.63;66.04
61384;BME280;63511;49.346;8.798;2023-04-04T04:12:46;101174.38;;;1.54;67.28
61384;BME280;63511;49.346;8.798;2023-04-04T04:15:13;101180.22;;;1.62;66.91
61384;BME280;63511;49.346;8.798;2023-04-04T04:17:41;101174.53;;;1.56;65.66
61384;BME280;63511;49.346;8.798;2023-04-04T04:20:07;101181.31;;;1.36;66.52
61384;BME280;63511;49.346;8.798;2023-04-04T04:22:34;101180.91;;;1.04;68.89
61384;BME280;63511;49.346;8.798;2023-04-04T04:25:02;101173.66;;;1.13;67.89
61384;BME280;63511;49.346;8.798;2023-04-04T04:27:28;101176.16;;;1.13;68.61
61384;BME280;63511;49.346;8.798;2023-04-04T04:29:55;101175.28;;;1.34;68.89
61384;BME280;63511;49.346;8.798;2023-04-04T04:32:21;101176.88;;;1.47;66.70
61384;BME280;63511;49.346;8.798;2023-04-04T04:34:51;101177.22;;;1.57;67.34
61384;BME280;63511;49.346;8.798;2023-04-04T04:37:18;101179.72;;;1.57;66.42
61384;BME280;63511;49.346;8.798;2023-04-04T04:39:44;101182.72;;;1.69;65.20
61384;BME280;63511;49.346;8.798;2023-04-04T04:42:10;101176.16;;;1.69;65.38
61384;BME280;63511;49.346;8.798;2023-04-04T04:44:37;101182.53;;;1.11;68.42
61384;BME280;63511;49.346;8.798;2023-04-04T04:47:03;101177.91;;;1.00;68.52
61384;BME280;63511;49.346;8.798;2023-04-04T04:49:30;101180.75;;;1.10;68.53
61384;BME280;63511;49.346;8.798;2023-04-04T04:51:57;101179.13;;;0.82;69.92
61384;BME280;63511;49.346;8.798;2023-04-04T04:54:24;101182.91;;;1.07;69.11
61384;BME280;63511;49.346;8.798;2023-04-04T04:56:50;101164.44;;;1.12;68.02
61384;BME280;63511;49.346;8.798;2023-04-04T04:59:16;101173.31;;;1.31;68.25
61384;BME280;63511;49.346;8.798;2023-04-04T05:01:43;101179.53;;;1.42;67.23
61384;BME280;63511;49.346;8.798;2023-04-04T05:04:10;101180.75;;;1.45;67.01
61384;BME280;63511;49.346;8.798;2023-04-04T05:06:37;101181.31;;;1.43;66.90
61384;BME280;63511;49.346;8.798;2023-04-04T05:09:04;101186.47;;;1.58;66.25
61384;BME280;63511;49.346;8.798;2023-04-04T05:11:31;101181.16;;;1.55;66.16
61384;BME280;63511;49.346;8.798;2023-04-04T05:13:57;101183.25;;;1.66;66.67
61384;BME280;63511;49.346;8.798;2023-04-04T05:16:24;101180.25;;;1.55;67.02
61384;BME280;63511;49.346;8.798;2023-04-04T05:18:50;101181.66;;;1.53;66.45
61384;BME280;63511;49.346;8.798;2023-04-04T05:21:17;101189.31;;;1.33;67.31
61384;BME280;63511;49.346;8.798;2023-04-04T05:23:43;101182.22;;;1.29;67.44
61384;BME280;63511;49.346;8.798;2023-04-04T05:26:11;101188.44;;;1.33;68.51
61384;BME280;63511;49.346;8.798;2023-04-04T05:28:38;101183.25;;;1.31;68.66
61384;BME280;63511;49.346;8.798;2023-04-04T05:31:05;101185.22;;;1.26;68.63
61384;BME280;63511;49.346;8.798;2023-04-04T05:33:31;101193.75;;;1.43;68.26
61384;BME280;63511;49.346;8.798;2023-04-04T05:35:58;101196.94;;;1.13;69.71
61384;BME280;63511;49.346;8.798;2023-04-04T05:38:24;101190.53;;;1.15;68.97
61384;BME280;63511;49.346;8.798;2023-04-04T05:40:52;101186.13;;;1.27;68.55
61384;BME280;63511;49.346;8.798;2023-04-04T05:43:19;101193.22;;;1.38;68.19
61384;BME280;63511;49.346;8.798;2023-04-04T05:45:46;101180.78;;;1.24;69.16
61384;BME280;63511;49.346;8.798;2023-04-04T05:48:14;101196.94;;;1.56;67.82
61384;BME280;63511;49.346;8.798;2023-04-04T05:50:43;101192.31;;;1.80;67.50
61384;BME280;63511;49.346;8.798;2023-04-04T05:53:09;101187.50;;;1.82;67.76
61384;BME280;63511;49.346;8.798;2023-04-04T05:55:36;101196.78;;;1.76;68.23
61384;BME280;63511;49.346;8.798;2023-04-04T05:58:02;101189.03;;;2.02;67.94
61384;BME280;63511;49.346;8.798;2023-04-04T06:00:30;101188.75;;;1.85;67.93
61384;BME280;63511;49.346;8.798;2023-04-04T06:02:56;101189.34;;;2.27;66.58
61384;BME280;63511;49.346;8.798;2023-04-04T06:05:23;101194.22;;;2.11;67.39
61384;BME280;63511;49.346;8.798;2023-04-04T06:07:50;101195.94;;;2.26;66.41
61384;BME280;63511;49.346;8.798;2023-04-04T06:10:16;101194.41;;;2.49;64.66
61384;BME280;63511;49.346;8.798;2023-04-04T06:12:42;101203.72;;;2.43;65.86
61384;BME280;63511;49.346;8.798;2023-04-04T06:15:12;101192.50;;;2.77;63.91
61384;BME280;63511;49.346;8.798;2023-04-04T06:28:56;101200.31;;;3.62;59.40
61384;BME280;63511;49.346;8.798;2023-04-04T06:34:33;101198.50;;;4.15;56.49
61384;BME280;63511;49.346;8.798;2023-04-04T06:40:10;101198.91;;;4.43;55.66
61384;BME280;63511;49.346;8.798;2023-04-04T06:42:36;101192.63;;;4.15;55.14
61384;BME280;63511;49.346;8.798;2023-04-04T06:45:04;101202.97;;;4.34;55.59
61384;BME280;63511;49.346;8.798;2023-04-04T06:47:31;101192.38;;;4.36;54.76
61384;BME280;63511;49.346;8.798;2023-04-04T06:49:57;101197.28;;;4.59;52.81
61384;BME280;63511;49.346;8.798;2023-04-04T06:52:24;101189.81;;;4.83;53.92
61384;BME280;63511;49.346;8.798;2023-04-04T06:54:50;101202.66;;;4.86;52.48
61384;BME280;63511;49.346;8.798;2023-04-04T06:57:17;101194.38;;;4.87;52.82
61384;BME280;63511;49.346;8.798;2023-04-04T06:59:43;101190.31;;;5.12;51.05
61384;BME280;63511;49.346;8.798;2023-04-04T07:02:11;101187.78;;;5.12;50.33
61384;BME280;63511;49.346;8.798;2023-04-04T07:04:37;101189.66;;;5.30;50.94
61384;BME280;63511;49.346;8.798;2023-04-04T07:07:05;101192.69;;;5.52;50.27
61384;BME280;63511;49.346;8.798;2023-04-04T07:09:31;101187.50;;;5.42;49.69
61384;BME280;63511;49.346;8.798;2023-04-04T07:11:57;101185.97;;;5.27;49.74
61384;BME280;63511;49.346;8.798;2023-04-04T07:14:26;101181.97;;;5.53;47.59
61384;BME280;63511;49.346;8.798;2023-04-04T07:16:53;101182.78;;;5.78;47.58
61384;BME280;63511;49.346;8.798;2023-04-04T07:19:21;101188.97;;;5.81;47.73
61384;BME280;63511;49.346;8.798;2023-04-04T07:21:52;101189.25;;;5.76;45.90
61384;BME280;63511;49.346;8.798;2023-04-04T07:24:19;101185.44;;;5.79;47.13
61384;BME280;63511;49.346;8.798;2023-04-04T07:26:45;101186.31;;;5.80;46.23
61384;BME280;63511;49.346;8.798;2023-04-04T07:29:12;101181.69;;;6.09;45.63
61384;BME280;63511;49.346;8.798;2023-04-04T07:31:38;101183.00;;;5.96;45.44
61384;BME280;63511;49.346;8.798;2023-04-04T07:34:05;101174.03;;;6.33;46.77
61384;BME280;63511;49.346;8.798;2023-04-04T07:36:33;101178.47;;;6.44;45.30
61384;BME280;63511;49.346;8.798;2023-04-04T07:38:59;101174.94;;;6.51;45.52
61384;BME280;63511;49.346;8.798;2023-04-04T07:41:26;101175.38;;;6.38;45.19
61384;BME280;63511;49.346;8.798;2023-04-04T07:43:53;101169.03;;;6.33;45.05
61384;BME280;63511;49.346;8.798;2023-04-04T07:46:19;101161.94;;;6.55;45.04
61384;BME280;63511;49.346;8.798;2023-04-04T07:48:46;101174.34;;;6.36;45.06
61384;BME280;63511;49.346;8.798;2023-04-04T07:51:14;101171.84;;;6.36;46.17
61384;BME280;63511;49.346;8.798;2023-04-04T07:53:41;101169.34;;;6.62;44.66
61384;BME280;63511;49.346;8.798;2023-04-04T07:56:08;101163.09;;;6.75;44.33
61384;BME280;63511;49.346;8.798;2023-04-04T07:58:34;101167.03;;;7.08;45.44
61384;BME280;63511;49.346;8.798;2023-04-04T08:01:01;101165.16;;;6.79;42.39
61384;BME280;63511;49.346;8.798;2023-04-04T08:03:29;101160.03;;;6.52;40.72
61384;BME280;63511;49.346;8.798;2023-04-04T08:05:55;101173.31;;;6.77;42.28
61384;BME280;63511;49.346;8.798;2023-04-04T08:08:22;101175.47;;;7.00;43.32
61384;BME280;63511;49.346;8.798;2023-04-04T08:10:50;101180.22;;;6.97;41.65
61384;BME280;63511;49.346;8.798;2023-04-04T08:13:16;101178.44;;;7.04;41.09
61384;BME280;63511;49.346;8.798;2023-04-04T08:15:43;101174.13;;;7.12;42.02
61384;BME280;63511;49.346;8.798;2023-04-04T08:18:09;101184.81;;;6.83;42.19
61384;BME280;63511;49.346;8.798;2023-04-04T08:20:36;101177.59;;;6.61;42.06
61384;BME280;63511;49.346;8.798;2023-04-04T08:23:02;101177.78;;;7.15;40.56
61384;BME280;63511;49.346;8.798;2023-04-04T08:25:29;101181.63;;;7.20;41.43
61384;BME280;63511;49.346;8.798;2023-04-04T08:27:57;101177.84;;;6.98;43.22
61384;BME280;63511;49.346;8.798;2023-04-04T08:30:23;101170.53;;;7.27;40.41
61384;BME280;63511;49.346;8.798;2023-04-04T08:32:50;101182.19;;;7.26;43.40
61384;BME280;63511;49.346;8.798;2023-04-04T08:35:16;101177.22;;;7.18;41.92
61384;BME280;63511;49.346;8.798;2023-04-04T08:37:43;101180.25;;;7.33;43.52
61384;BME280;63511;49.346;8.798;2023-04-04T08:40:11;101178.72;;;7.79;41.47
61384;BME280;63511;49.346;8.798;2023-04-04T08:42:39;101178.47;;;7.67;41.78
61384;BME280;63511;49.346;8.798;2023-04-04T08:45:09;101188.94;;;7.81;41.67
61384;BME280;63511;49.346;8.798;2023-04-04T08:47:36;101178.06;;;7.36;42.43
61384;BME280;63511;49.346;8.798;2023-04-04T08:50:03;101174.75;;;7.45;39.97
61384;BME280;63511;49.346;8.798;2023-04-04T08:52:30;101158.25;;;7.66;41.26
61384;BME280;63511;49.346;8.798;2023-04-04T08:54:58;101177.28;;;7.45;41.89
61384;BME280;63511;49.346;8.798;2023-04-04T08:57:25;101165.16;;;7.68;41.70
61384;BME280;63511;49.346;8.798;2023-04-04T08:59:52;101158.66;;;7.71;43.33
61384;BME280;63511;49.346;8.798;2023-04-04T09:02:21;101165.03;;;7.94;41.73
61384;BME280;63511;49.346;8.798;2023-04-04T09:04:49;101165.09;;;7.86;40.19
61384;BME280;63511;49.346;8.798;2023-04-04T09:07:17;101168.00;;;7.63;40.80
61384;BME280;63511;49.346;8.798;2023-04-04T09:09:44;101166.16;;;7.98;42.23
61384;BME280;63511;49.346;8.798;2023-04-04T09:12:12;101159.25;;;7.95;40.98
61384;BME280;63511;49.346;8.798;2023-04-04T09:14:40;101158.03;;;8.19;41.10
61384;BME280;63511;49.346;8.798;2023-04-04T09:17:08;101159.59;;;8.55;42.18
61384;BME280;63511;49.346;8.798;2023-04-04T09:19:36;101163.97;;;8.01;40.35
61384;BME280;63511;49.346;8.798;2023-04-04T09:22:05;101167.75;;;8.33;42.36
61384;BME280;63511;49.346;8.798;2023-04-04T09:24:35;101156.72;;;8.41;41.01
61384;BME280;63511;49.346;8.798;2023-04-04T09:27:02;101146.06;;;7.98;39.56
61384;BME280;63511;49.346;8.798;2023-04-04T09:29:29;101159.06;;;8.21;40.73
61384;BME280;63511;49.346;8.798;2023-04-04T09:31:55;101163.06;;;7.82;40.76
61384;BME280;63511;49.346;8.798;2023-04-04T09:34:21;101152.94;;;8.09;40.83
61384;BME280;63511;49.346;8.798;2023-04-04T09:36:49;101143.34;;;8.32;39.72
61384;BME280;63511;49.346;8.798;2023-04-04T09:39:18;101147.94;;;8.28;39.92
61384;BME280;63511;49.346;8.798;2023-04-04T09:41:47;101144.84;;;8.49;40.93
61384;BME280;63511;49.346;8.798;2023-04-04T09:44:20;101145.41;;;8.28;41.64
61384;BME280;63511;49.346;8.798;2023-04-04T09:46:47;101150.91;;;8.80;40.54
61384;BME280;63511;49.346;8.798;2023-04-04T09:49:17;101139.19;;;8.33;39.09
61384;BME280;63511;49.346;8.798;2023-04-04T09:51:46;101146.78;;;8.62;39.74
61384;BME280;63511;49.346;8.798;2023-04-04T09:54:20;101140.16;;;8.72;40.35
61384;BME280;63511;49.346;8.798;2023-04-04T09:56:47;101138.84;;;8.38;40.16
61384;BME280;63511;49.346;8.798;2023-04-04T09:59:14;101141.97;;;8.36;38.52
61384;BME280;63511;49.346;8.798;2023-04-04T10:01:41;101147.97;;;9.04;39.40
61384;BME280;63511;49.346;8.798;2023-04-04T10:04:07;101144.88;;;8.88;40.47
61384;BME280;63511;49.346;8.798;2023-04-04T10:06:35;101149.19;;;8.89;38.59
61384;BME280;63511;49.346;8.798;2023-04-04T10:09:01;101141.25;;;9.33;41.28
61384;BME280;63511;49.346;8.798;2023-04-04T10:11:31;101142.53;;;9.49;40.47
61384;BME280;63511;49.346;8.798;2023-04-04T10:13:58;101150.91;;;8.80;39.31
61384;BME280;63511;49.346;8.798;2023-04-04T10:16:30;101150.03;;;8.79;39.26
61384;BME280;63511;49.346;8.798;2023-04-04T10:18:56;101138.34;;;9.29;39.78
61384;BME280;63511;49.346;8.798;2023-04-04T10:21:23;101139.22;;;9.19;40.20
61384;BME280;63511;49.346;8.798;2023-04-04T10:23:50;101138.84;;;9.25;39.13
61384;BME280;63511;49.346;8.798;2023-04-04T10:26:17;101134.00;;;9.57;39.23
61384;BME280;63511;49.346;8.798;2023-04-04T10:28:44;101139.19;;;9.09;37.93
61384;BME280;63511;49.346;8.798;2023-04-04T10:31:15;101138.66;;;9.52;39.11
61384;BME280;63511;49.346;8.798;2023-04-04T10:33:43;101132.09;;;9.74;38.13
61384;BME280;63511;49.346;8.798;2023-04-04T10:36:11;101135.03;;;9.99;37.95
61384;BME280;63511;49.346;8.798;2023-04-04T10:38:41;101135.56;;;9.16;38.11
61384;BME280;63511;49.346;8.798;2023-04-04T10:41:09;101136.78;;;9.01;38.31
61384;BME280;63511;49.346;8.798;2023-04-04T10:43:38;101130.19;;;9.42;38.48
61384;BME280;63511;49.346;8.798;2023-04-04T10:46:07;101126.59;;;9.89;38.46
61384;BME280;63511;49.346;8.798;2023-04-04T10:48:36;101138.22;;;9.27;40.75
61384;BME280;63511;49.346;8.798;2023-04-04T10:51:03;101132.19;;;9.25;39.78
61384;BME280;63511;49.346;8.798;2023-04-04T10:53:30;101122.91;;;9.75;36.45
61384;BME280;63511;49.346;8.798;2023-04-04T10:56:00;101125.19;;;9.82;38.44
61384;BME280;63511;49.346;8.798;2023-04-04T10:58:32;101104.88;;;9.91;39.42
61384;BME280;63511;49.346;8.798;2023-04-04T11:01:11;101112.81;;;9.95;38.11
61384;BME280;63511;49.346;8.798;2023-04-04T11:06:38;101107.38;;;10.41;42.28
61384;BME280;63511;49.346;8.798;2023-04-04T11:12:09;101103.22;;;9.51;35.06
61384;BME280;63511;49.346;8.798;2023-04-04T11:14:53;101096.53;;;9.41;37.67
61384;BME280;63511;49.346;8.798;2023-04-04T11:17:24;101102.22;;;9.49;36.31
61384;BME280;63511;49.346;8.798;2023-04-04T11:20:00;101097.28;;;10.11;37.37
61384;BME280;63511;49.346;8.798;2023-04-04T11:22:28;101091.25;;;9.99;37.82
61384;BME280;63511;49.346;8.798;2023-04-04T11:24:57;101083.34;;;10.78;38.36
61384;BME280;63511;49.346;8.798;2023-04-04T11:27:24;101079.25;;;10.90;38.81
61384;BME280;63511;49.346;8.798;2023-04-04T11:29:51;101080.72;;;10.45;39.19
61384;BME280;63511;49.346;8.798;2023-04-04T11:35:07;101084.66;;;10.21;40.63
61384;BME280;63511;49.346;8.798;2023-04-04T11:37:40;101083.19;;;10.55;38.42
61384;BME280;63511;49.346;8.798;2023-04-04T11:40:08;101082.91;;;10.30;37.99
61384;BME280;63511;49.346;8.798;2023-04-04T11:42:36;101077.06;;;10.73;39.45
61384;BME280;63511;49.346;8.798;2023-04-04T11:45:04;101074.44;;;10.72;38.96
61384;BME280;63511;49.346;8.798;2023-04-04T11:47:31;101075.78;;;10.46;38.43
61384;BME280;63511;49.346;8.798;2023-04-04T11:49:58;101077.84;;;10.72;39.86
61384;BME280;63511;49.346;8.798;2023-04-04T11:52:30;101063.22;;;10.58;37.90
61384;BME280;63511;49.346;8.798;2023-04-04T11:54:57;101064.38;;;10.61;37.64
61384;BME280;63511;49.346;8.798;2023-04-04T11:57:24;101066.81;;;10.50;38.97
61384;BME280;63511;49.346;8.798;2023-04-04T11:59:51;101053.81;;;10.77;36.21
61384;BME280;63511;49.346;8.798;2023-04-04T12:02:18;101059.06;;;10.58;37.88
61384;BME280;63511;49.346;8.798;2023-04-04T12:04:45;101059.41;;;10.63;38.03
61384;BME280;63511;49.346;8.798;2023-04-04T12:07:12;101043.66;;;10.87;37.29
61384;BME280;63511;49.346;8.798;2023-04-04T12:09:40;101051.13;;;10.54;37.07
61384;BME280;63511;49.346;8.798;2023-04-04T12:12:07;101053.22;;;10.28;37.44
61384;BME280;63511;49.346;8.798;2023-04-04T12:14:37;101051.91;;;10.75;40.32
61384;BME280;63511;49.346;8.798;2023-04-04T12:17:04;101052.72;;;10.63;38.34
61384;BME280;63511;49.346;8.798;2023-04-04T12:19:34;101053.59;;;10.32;38.61
61384;BME280;63511;49.346;8.798;2023-04-04T12:22:01;101047.06;;;10.14;37.50
61384;BME280;63511;49.346;8.798;2023-04-04T12:24:27;101037.19;;;10.91;42.10
61384;BME280;63511;49.346;8.798;2023-04-04T12:26:55;101041.91;;;11.20;40.07
61384;BME280;63511;49.346;8.798;2023-04-04T12:29:23;101026.63;;;11.51;36.59
61384;BME280;63511;49.346;8.798;2023-04-04T12:31:51;101025.94;;;11.42;34.18
61384;BME280;63511;49.346;8.798;2023-04-04T12:34:20;101023.78;;;10.92;36.44
61384;BME280;63511;49.346;8.798;2023-04-04T12:36:47;101018.25;;;11.41;36.65
61384;BME280;63511;49.346;8.798;2023-04-04T12:39:14;101017.94;;;11.15;35.57
61384;BME280;63511;49.346;8.798;2023-04-04T12:41:46;101019.97;;;10.97;36.46
61384;BME280;63511;49.346;8.798;2023-04-04T12:44:24;101020.56;;;10.83;35.27
61384;BME280;63511;49.346;8.798;2023-04-04T12:46:51;101027.28;;;10.50;37.70
61384;BME280;63511;49.346;8.798;2023-04-04T12:49:19;101017.44;;;10.97;38.08
61384;BME280;63511;49.346;8.798;2023-04-04T12:51:46;101022.34;;;10.74;38.68
61384;BME280;63511;49.346;8.798;2023-04-04T12:54:23;101018.88;;;10.83;38.95
61384;BME280;63511;49.346;8.798;2023-04-04T12:56:53;101012.03;;;11.26;38.78
61384;BME280;63511;49.346;8.798;2023-04-04T12:59:21;101003.97;;;11.53;38.80
61384;BME280;63511;49.346;8.798;2023-04-04T13:01:48;101008.41;;;10.67;37.35
61384;BME280;63511;49.346;8.798;2023-04-04T13:04:14;100998.59;;;11.48;39.32
61384;BME280;63511;49.346;8.798;2023-04-04T13:06:43;100996.78;;;11.92;36.25
61384;BME280;63511;49.346;8.798;2023-04-04T13:09:14;100995.47;;;11.41;35.61
61384;BME280;63511;49.346;8.798;2023-04-04T13:11:57;100991.50;;;11.78;36.17
61384;BME280;63511;49.346;8.798;2023-04-04T13:14:27;100982.25;;;11.78;35.41
61384;BME280;63511;49.346;8.798;2023-04-04T13:17:00;100980.13;;;11.16;36.75
61384;BME280;63511;49.346;8.798;2023-04-04T13:19:28;100978.69;;;11.53;37.10
61384;BME280;63511;49.346;8.798;2023-04-04T13:21:54;100983.50;;;11.38;36.31
61384;BME280;63511;49.346;8.798;2023-04-04T13:24:21;100974.78;;;11.35;35.65